Архив погоды в Александровом Гае

Метеограмма Александров Гай
Вторник, 27 Июня
Время местн. Темп Ветер Видим Явления Облачность нижн/средн/верх Атм. давл. Влжн Точка росы ВНГО R Сост. почвы Tg s
Напр Скр Прв ур.ст ур.м изм
03:00 +16.1° Ю-З 1 - 10 км - ясно 759 761 +0.2 87% +14° более 2.5 км - - - -
00:00 +18.5° Ю,Ю-З 1 - 10 км - ясно 759 761 +0.2 85% +16° более 2.5 км - - - -
Понедельник, 26 Июня
Время местн. Темп Ветер Видим Явления Облачность нижн/средн/верх Атм. давл. Влжн Точка росы ВНГО R Сост. почвы Tg s
Напр Скр Прв ур.ст ур.м изм
21:00 +22.4° Ю,Ю-З 2 - 10 км - переменная облачность 759 761 +0.2 72% +17° более 2.5 км - - - -
18:00 +26.7° Ю-З 3 - 10 км - преимущественно облачно 759 761 -0.6 54% +16.5° 1.5 км - - - -
15:00 +26° Ю-З 3 - 10 км - преимущественно облачно 759 761 -0.1 48% +14.3° 1.5 км - - - -
12:00 +24.8° З 3 - 10 км - облачно с прояснениями 759 762 -0.4 53% +14.6° 1.5 км - - - -
09:00 +22.9° Ю-З 2 - 10 км - облачно с прояснениями 760 762 +0.8 55% +13.4° 1.5 км - - - -
06:00 +17.8° З 3 - 10 км - переменная облачность 759 761 +0.2 72% +12.6° - - Влажная (без луж) - -
03:00 +15.1° Ю-З 2 - 10 км - облачно 759 761 +0.2 79% +11.5° более 2.5 км - - - -
00:00 +14.4° З 1 - 10 км - ясно 758 761 +0.8 80% +11° более 2.5 км - - - -
Воскресенье, 25 Июня
Время местн. Темп Ветер Видим Явления Облачность нижн/средн/верх Атм. давл. Влжн Точка росы ВНГО R Сост. почвы Tg s
Напр Скр Прв ур.ст ур.м изм
21:00 +17.3° С-З 1 - 10 км - переменная облачность 758 760 +0.7 66% +11° - - - - -
18:00 +23.1° С-З 2 - 10 км - облачно с прояснениями 757 759 +0.4 34% +6.4° 1.5 км 0 - - -
15:00 +23.7° З,С-З 3 - 10 км - облачно с прояснениями 757 759 +0.2 38% +8.4° 1.5 км - - - -
12:00 +21.9° С 3 - 10 км - облачно с прояснениями 756 759 +0.5 42% +8.5° 1.5 км - - - -
09:00 +18.1° С-З 3 - 10 км - облачно с прояснениями 756 758 +0.9 63% +10.9° более 2.5 км - - - -
06:00 +11.8° С-З 3 - 10 км - преимущественно облачно 755 757 +1.3 85% +9.4° более 2.5 км - Влажная (без луж) - -
03:00 +9.8° З,С-З 8 - 10 км - ясно 754 756 -1.9 91% +8.4° более 2.5 км - - - -
00:00 +12.2° З,С-З 6 - 10 км - ясно 752 754 +1.8 90% +10.6° более 2.5 км - - - -
Суббота, 24 Июня
Время местн. Темп Ветер Видим Явления Облачность нижн/средн/верх Атм. давл. Влжн Точка росы ВНГО R Сост. почвы Tg s
Напр Скр Прв ур.ст ур.м изм
21:00 +15.1° З,С-З 3 - 10 км небо без изменений {ливневые осадки} переменная облачность 750 752 +2.3 100% +15.1° - - - - -
18:00 +17.8° Ю,Ю-З 9 16 4 км умеренный или сильный ливневый дождь облачно 748 750 -2 94% +16.9° 1.5 км - - - -
15:00 +23.8° Ю-З 10 18 10 км ливневый дождь облачно 750 752 -1.5 45% +11.1° 1 км - - - -
12:00 +25.9° Ю,Ю-З 9 14 10 км - преимущественно облачно 751 753 -1.8 34% +9° 1.5 км - - - -
09:00 +20.6° Ю 4 - 10 км - облачно 753 755 -0.9 57% +11.9° - - - - -
06:00 +17.6° Ю,Ю-З 3 - 10 км - преимущественно облачно 754 756 -0.3 61% +10° - - Сухая (без трещин) - -
03:00 +13.7° Ю 1 - 10 км - ясно 754 756 -1.1 74% +9.2° более 2.5 км - - - -
00:00 +17.7° Ю 1 - 10 км - переменная облачность 755 757 -0.2 61% +10.2° более 2.5 км - - - -